createdAt,value
2018-07-15T00:01:07.152Z,0.00
2018-07-15T00:02:07.080Z,0.00
2018-07-15T00:03:59.923Z,0.00
2018-07-15T00:04:59.864Z,0.00
2018-07-15T00:06:52.655Z,0.00
2018-07-15T00:07:52.580Z,0.00
2018-07-15T00:09:45.385Z,0.00
2018-07-15T00:10:45.290Z,0.00
2018-07-15T00:12:38.083Z,0.00
2018-07-15T00:13:38.027Z,0.00
2018-07-15T00:15:30.807Z,0.00
2018-07-15T00:16:30.754Z,0.00
2018-07-15T00:18:23.528Z,0.00
2018-07-15T00:19:23.430Z,0.00
2018-07-15T00:21:16.230Z,0.00
2018-07-15T00:22:16.162Z,0.00
2018-07-15T00:24:08.923Z,0.00
2018-07-15T00:25:08.849Z,0.00
2018-07-15T00:27:01.679Z,0.00
2018-07-15T00:28:01.589Z,0.00
2018-07-15T00:29:54.406Z,0.00
2018-07-15T00:30:54.333Z,0.00
2018-07-15T00:32:47.112Z,0.00
2018-07-15T00:33:47.048Z,0.00
2018-07-15T00:35:39.878Z,0.00
2018-07-15T00:36:39.811Z,0.00
2018-07-15T00:38:32.565Z,0.00
2018-07-15T00:39:32.491Z,0.00
2018-07-15T00:41:25.280Z,0.00
2018-07-15T00:42:25.216Z,0.00
2018-07-15T00:44:18.012Z,0.00
2018-07-15T00:45:17.932Z,0.00
2018-07-15T00:47:10.756Z,0.00
2018-07-15T00:48:10.663Z,0.00
2018-07-15T00:50:03.450Z,0.00
2018-07-15T00:51:03.370Z,0.00
2018-07-15T00:52:56.181Z,0.00
2018-07-15T00:53:56.102Z,0.00
2018-07-15T00:55:48.913Z,0.00
2018-07-15T00:56:48.829Z,0.00
2018-07-15T00:58:41.607Z,0.00
2018-07-15T00:59:41.544Z,0.00
2018-07-15T01:01:34.333Z,0.00
2018-07-15T01:02:34.264Z,0.00
2018-07-15T01:04:27.072Z,0.00
2018-07-15T01:05:26.969Z,0.00
2018-07-15T01:07:19.772Z,0.00
2018-07-15T01:08:19.713Z,0.00
2018-07-15T01:10:12.478Z,0.00
2018-07-15T01:11:12.398Z,0.00
2018-07-15T01:13:05.196Z,0.00
2018-07-15T01:14:05.131Z,0.00
2018-07-15T01:15:57.893Z,0.00
2018-07-15T01:16:57.813Z,0.00
2018-07-15T01:18:50.616Z,0.00
2018-07-15T01:19:50.541Z,0.00
2018-07-15T01:21:43.329Z,0.00
2018-07-15T01:22:43.249Z,0.00
2018-07-15T01:24:36.036Z,0.00
2018-07-15T01:25:35.967Z,0.00
2018-07-15T01:27:28.751Z,0.00
2018-07-15T01:28:28.668Z,0.00
2018-07-15T01:30:21.496Z,0.00
2018-07-15T01:31:21.394Z,0.00
2018-07-15T01:33:14.184Z,0.00
2018-07-15T01:34:14.121Z,0.00
2018-07-15T01:36:06.900Z,0.00
2018-07-15T01:37:06.824Z,0.00
2018-07-15T01:38:59.613Z,0.00
2018-07-15T01:39:59.555Z,0.00
2018-07-15T01:41:52.332Z,0.00
2018-07-15T01:42:52.231Z,0.00
2018-07-15T01:44:45.019Z,0.00
2018-07-15T01:45:44.947Z,0.00
2018-07-15T01:47:37.735Z,0.00
2018-07-15T01:48:37.657Z,0.00
2018-07-15T01:50:30.467Z,0.00
2018-07-15T01:51:30.390Z,0.00
2018-07-15T01:53:23.179Z,0.00
2018-07-15T01:54:23.101Z,0.00
2018-07-15T01:56:15.886Z,0.00
2018-07-15T01:57:15.806Z,0.00
2018-07-15T01:59:08.583Z,0.00
2018-07-15T02:00:08.515Z,0.00
2018-07-15T02:02:01.313Z,0.00
2018-07-15T02:03:01.219Z,0.00
2018-07-15T02:04:54.012Z,0.00
2018-07-15T02:05:53.935Z,0.00
2018-07-15T02:07:46.722Z,0.00
2018-07-15T02:08:46.638Z,0.00
2018-07-15T02:10:39.421Z,0.00
2018-07-15T02:11:39.345Z,0.00
2018-07-15T02:13:32.142Z,0.00
2018-07-15T02:14:32.056Z,0.00
2018-07-15T02:16:24.832Z,0.00
2018-07-15T02:17:24.766Z,0.00
2018-07-15T02:19:17.531Z,0.00
2018-07-15T02:20:17.466Z,0.00
2018-07-15T02:22:10.260Z,0.00
2018-07-15T02:23:10.172Z,0.00
2018-07-15T02:25:02.950Z,0.00
2018-07-15T02:26:02.881Z,0.00
2018-07-15T02:27:55.685Z,0.00
2018-07-15T02:28:55.591Z,0.00
2018-07-15T02:30:48.361Z,0.00
2018-07-15T02:31:48.298Z,0.00
2018-07-15T02:33:41.118Z,0.00
2018-07-15T02:34:41.041Z,0.00
2018-07-15T02:36:33.907Z,0.00
2018-07-15T02:37:33.793Z,0.00
2018-07-15T02:39:26.581Z,0.00
2018-07-15T02:40:26.503Z,0.00
2018-07-15T02:42:19.303Z,0.00
2018-07-15T02:43:19.215Z,0.00
2018-07-15T02:45:11.979Z,0.00
2018-07-15T02:46:11.912Z,0.00
2018-07-15T02:48:04.731Z,0.00
2018-07-15T02:49:04.650Z,0.00
2018-07-15T02:50:57.415Z,0.00
2018-07-15T02:51:57.357Z,5.63
2018-07-15T02:53:50.138Z,5.63
2018-07-15T02:54:50.065Z,5.63
2018-07-15T02:56:42.903Z,5.63
2018-07-15T02:57:42.801Z,5.63
2018-07-15T02:59:35.581Z,5.63
2018-07-15T03:00:35.500Z,5.63
2018-07-15T03:02:28.268Z,11.25
2018-07-15T03:03:28.202Z,11.25
2018-07-15T03:05:20.992Z,11.25
2018-07-15T03:06:20.911Z,11.25
2018-07-15T03:08:13.686Z,16.88
2018-07-15T03:09:13.606Z,16.88
2018-07-15T03:11:06.383Z,22.50
2018-07-15T03:12:06.319Z,22.50
2018-07-15T03:13:59.158Z,22.50
2018-07-15T03:14:59.043Z,28.13
2018-07-15T03:16:51.811Z,28.13
2018-07-15T03:17:51.759Z,28.13
2018-07-15T03:19:44.530Z,33.75
2018-07-15T03:20:44.447Z,33.75
2018-07-15T03:22:37.218Z,39.38
2018-07-15T03:23:37.146Z,39.38
2018-07-15T03:25:29.923Z,45.00
2018-07-15T03:26:29.856Z,45.00
2018-07-15T03:28:22.605Z,56.25
2018-07-15T03:29:22.545Z,56.25
2018-07-15T03:31:15.345Z,67.50
2018-07-15T03:32:15.262Z,73.13
2018-07-15T03:34:08.136Z,78.75
2018-07-15T03:35:07.981Z,78.75
2018-07-15T03:37:00.765Z,84.38
2018-07-15T03:38:00.684Z,90.00
2018-07-15T03:39:53.541Z,90.00
2018-07-15T03:40:53.438Z,90.00
2018-07-15T03:42:46.202Z,95.63
2018-07-15T03:43:46.131Z,95.63
2018-07-15T03:45:38.907Z,95.63
2018-07-15T03:46:38.842Z,95.63
2018-07-15T03:48:31.600Z,101.25
2018-07-15T03:49:31.536Z,101.25
2018-07-15T03:51:24.307Z,106.88
2018-07-15T03:52:24.260Z,106.88
2018-07-15T03:54:17.015Z,112.50
2018-07-15T03:55:16.948Z,118.13
2018-07-15T03:57:09.757Z,123.75
2018-07-15T03:58:09.652Z,118.13
2018-07-15T04:00:02.429Z,123.75
2018-07-15T04:01:02.375Z,123.75
2018-07-15T04:02:55.207Z,135.00
2018-07-15T04:03:55.091Z,140.63
2018-07-15T04:05:47.888Z,146.25
2018-07-15T04:06:47.800Z,151.88
2018-07-15T04:08:40.653Z,151.88
2018-07-15T04:09:40.502Z,157.50
2018-07-15T04:11:33.316Z,157.50
2018-07-15T04:12:33.234Z,157.50
2018-07-15T04:14:26.008Z,163.13
2018-07-15T04:15:25.943Z,163.13
2018-07-15T04:17:18.732Z,174.38
2018-07-15T04:18:18.634Z,180.00
2018-07-15T04:20:11.439Z,196.88
2018-07-15T04:21:11.368Z,202.50
2018-07-15T04:23:04.177Z,208.13
2018-07-15T04:24:04.092Z,208.13
2018-07-15T04:25:56.877Z,230.63
2018-07-15T04:26:56.807Z,236.25
2018-07-15T04:28:49.585Z,253.13
2018-07-15T04:29:49.505Z,247.50
2018-07-15T04:31:42.394Z,253.13
2018-07-15T04:32:42.265Z,258.75
2018-07-15T04:34:35.088Z,247.50
2018-07-15T04:35:35.028Z,247.50
2018-07-15T04:37:27.824Z,247.50
2018-07-15T04:38:27.745Z,253.13
2018-07-15T04:40:20.527Z,253.13
2018-07-15T04:41:20.445Z,253.13
2018-07-15T04:43:13.266Z,258.75
2018-07-15T04:44:13.179Z,258.75
2018-07-15T04:46:05.982Z,270.00
2018-07-15T04:47:05.967Z,281.25
2018-07-15T04:48:58.737Z,315.00
2018-07-15T04:49:58.640Z,315.00
2018-07-15T04:51:51.393Z,320.63
2018-07-15T04:52:51.329Z,320.63
2018-07-15T04:54:44.169Z,337.50
2018-07-15T04:55:44.080Z,326.25
2018-07-15T04:57:37.090Z,303.75
2018-07-15T04:58:37.097Z,298.13
2018-07-15T05:00:29.815Z,281.25
2018-07-15T05:01:29.732Z,286.88
2018-07-15T05:03:22.526Z,309.38
2018-07-15T05:04:22.472Z,320.63
2018-07-15T05:06:15.252Z,343.13
2018-07-15T05:07:15.189Z,354.38
2018-07-15T05:09:07.969Z,337.50
2018-07-15T05:10:07.894Z,320.63
2018-07-15T05:12:00.715Z,410.63
2018-07-15T05:13:00.641Z,410.63
2018-07-15T05:14:53.456Z,500.63
2018-07-15T05:15:53.354Z,506.25
2018-07-15T05:17:46.160Z,545.63
2018-07-15T05:18:46.094Z,528.75
2018-07-15T05:20:38.888Z,781.88
2018-07-15T05:21:38.813Z,545.63
2018-07-15T05:23:31.602Z,506.25
2018-07-15T05:24:31.539Z,495.00
2018-07-15T05:26:24.355Z,534.38
2018-07-15T05:27:24.260Z,585.00
2018-07-15T05:29:17.081Z,1597.50
2018-07-15T05:30:16.990Z,646.88
2018-07-15T05:32:09.771Z,832.50
2018-07-15T05:33:09.706Z,630.00
2018-07-15T05:35:02.554Z,596.25
2018-07-15T05:36:02.413Z,596.25
2018-07-15T05:37:55.206Z,708.75
2018-07-15T05:38:55.139Z,720.00
2018-07-15T05:40:47.944Z,1788.75
2018-07-15T05:41:47.861Z,1355.63
2018-07-15T05:43:40.649Z,3093.75
2018-07-15T05:44:40.581Z,1890.00
2018-07-15T05:46:33.437Z,697.50
2018-07-15T05:47:33.353Z,686.25
2018-07-15T05:49:26.119Z,1057.50
2018-07-15T05:50:26.064Z,2868.75
2018-07-15T05:52:18.894Z,2711.25
2018-07-15T05:53:18.807Z,1372.50
2018-07-15T05:55:11.619Z,630.00
2018-07-15T05:56:11.553Z,630.00
2018-07-15T05:58:04.543Z,753.75
2018-07-15T05:59:04.413Z,894.38
2018-07-15T06:00:57.198Z,3380.63
2018-07-15T06:01:57.135Z,3740.63
2018-07-15T06:03:49.945Z,1366.88
2018-07-15T06:04:49.866Z,995.63
2018-07-15T06:06:42.735Z,1001.25
2018-07-15T06:07:42.652Z,2013.75
2018-07-15T06:09:35.440Z,1451.25
2018-07-15T06:10:35.438Z,2008.13
2018-07-15T06:12:28.221Z,3099.38
2018-07-15T06:13:28.153Z,2638.13
2018-07-15T06:15:20.951Z,3611.25
2018-07-15T06:16:20.904Z,3425.63
2018-07-15T06:18:13.721Z,2880.00
2018-07-15T06:19:13.657Z,1113.75
2018-07-15T06:21:06.450Z,2790.00
2018-07-15T06:22:06.386Z,1119.38
2018-07-15T06:23:59.277Z,3723.75
2018-07-15T06:24:59.201Z,1625.63
2018-07-15T06:26:51.998Z,1479.38
2018-07-15T06:27:51.960Z,1063.13
2018-07-15T06:29:44.754Z,1850.63
2018-07-15T06:30:44.682Z,3825.00
2018-07-15T06:32:37.518Z,3076.88
2018-07-15T06:33:37.432Z,3836.25
2018-07-15T06:35:30.214Z,3414.38
2018-07-15T06:36:30.166Z,1721.25
2018-07-15T06:38:22.975Z,2379.38
2018-07-15T06:39:22.907Z,1822.50
2018-07-15T06:41:15.736Z,1828.13
2018-07-15T06:42:15.668Z,2941.88
2018-07-15T06:44:08.514Z,1344.38
2018-07-15T06:45:08.422Z,1333.13
2018-07-15T06:47:01.216Z,1496.25
2018-07-15T06:48:01.179Z,3673.13
2018-07-15T06:49:54.094Z,3105.00
2018-07-15T06:50:54.035Z,1569.38
2018-07-15T06:52:46.818Z,2469.38
2018-07-15T06:53:46.756Z,2182.50
2018-07-15T06:55:39.586Z,2030.63
2018-07-15T06:56:39.512Z,3526.88
2018-07-15T06:58:32.338Z,3611.25
2018-07-15T06:59:32.253Z,3774.38
2018-07-15T07:01:25.094Z,3661.88
2018-07-15T07:02:25.022Z,3751.88
2018-07-15T07:04:17.836Z,4196.25
2018-07-15T07:05:17.768Z,4410.00
2018-07-15T07:07:10.665Z,2475.00
2018-07-15T07:08:10.607Z,3521.25
2018-07-15T07:10:03.417Z,4246.88
2018-07-15T07:11:03.346Z,4218.75
2018-07-15T07:12:56.151Z,3999.38
2018-07-15T07:13:56.092Z,4185.00
2018-07-15T07:15:49.271Z,4415.63
2018-07-15T07:16:48.869Z,4376.25
2018-07-15T07:18:41.716Z,4078.13
2018-07-15T07:19:41.640Z,4111.88
2018-07-15T07:21:34.459Z,4325.63
2018-07-15T07:22:34.398Z,4336.88
2018-07-15T07:24:27.195Z,4100.63
2018-07-15T07:25:27.142Z,4230.00
2018-07-15T07:27:19.977Z,4100.63
2018-07-15T07:28:19.919Z,4140.00
2018-07-15T07:30:12.751Z,4494.38
2018-07-15T07:31:12.685Z,4353.75
2018-07-15T07:33:05.612Z,4404.38
2018-07-15T07:34:05.555Z,4488.75
2018-07-15T07:35:58.401Z,4590.00
2018-07-15T07:36:58.336Z,4725.00
2018-07-15T07:38:51.244Z,4533.75
2018-07-15T07:39:51.098Z,4545.00
2018-07-15T07:41:43.917Z,4190.63
2018-07-15T07:42:43.856Z,945.00
2018-07-15T07:44:36.718Z,5056.88
2018-07-15T07:45:36.643Z,5146.88
2018-07-15T07:47:29.462Z,4618.13
2018-07-15T07:48:29.432Z,4635.00
2018-07-15T07:50:22.239Z,4865.63
2018-07-15T07:51:22.189Z,4950.00
2018-07-15T07:53:15.048Z,2840.63
2018-07-15T07:54:15.003Z,4910.63
2018-07-15T07:56:07.913Z,4950.00
2018-07-15T07:57:07.795Z,4657.50
2018-07-15T07:59:00.632Z,4775.63
2018-07-15T08:00:00.582Z,4376.25
2018-07-15T08:01:53.520Z,4781.25
2018-07-15T08:02:53.390Z,1608.75
2018-07-15T08:04:46.205Z,4786.88
2018-07-15T08:05:46.157Z,4860.00
2018-07-15T08:07:39.030Z,4500.00
2018-07-15T08:08:38.944Z,1884.38
2018-07-15T08:10:31.783Z,2019.38
2018-07-15T08:11:31.738Z,3498.75
2018-07-15T08:13:24.604Z,3048.75
2018-07-15T08:14:24.548Z,1293.75
2018-07-15T08:16:17.361Z,939.38
2018-07-15T08:17:17.326Z,1085.63
2018-07-15T08:19:10.142Z,4758.75
2018-07-15T08:20:10.082Z,4044.38
2018-07-15T08:22:02.899Z,3313.13
2018-07-15T08:23:02.866Z,3099.38
2018-07-15T08:24:55.656Z,2199.38
2018-07-15T08:25:55.600Z,2081.25
2018-07-15T08:27:48.427Z,2812.50
2018-07-15T08:28:48.349Z,3335.63
2018-07-15T08:30:41.160Z,1158.75
2018-07-15T08:31:41.118Z,1006.88
2018-07-15T08:33:33.937Z,832.50
2018-07-15T08:34:33.877Z,843.75
2018-07-15T08:36:26.704Z,961.88
2018-07-15T08:37:26.665Z,3172.50
2018-07-15T08:39:19.463Z,4786.88
2018-07-15T08:40:19.418Z,4826.25
2018-07-15T08:42:12.206Z,4741.88
2018-07-15T08:43:12.167Z,4680.00
2018-07-15T08:45:04.999Z,4381.88
2018-07-15T08:46:04.981Z,4336.88
2018-07-15T08:47:57.842Z,4539.38
2018-07-15T08:48:57.723Z,4590.00
2018-07-15T08:50:50.571Z,4657.50
2018-07-15T08:51:50.480Z,4156.88
2018-07-15T08:53:43.373Z,832.50
2018-07-15T08:54:43.276Z,1096.88
2018-07-15T08:56:36.090Z,1220.63
2018-07-15T08:57:36.045Z,4117.50
2018-07-15T08:59:28.859Z,4516.88
2018-07-15T09:00:28.787Z,4539.38
2018-07-15T09:02:21.580Z,4083.75
2018-07-15T09:03:21.561Z,4483.13
2018-07-15T09:05:14.354Z,4438.13
2018-07-15T09:06:14.290Z,2098.13
2018-07-15T09:08:07.165Z,1575.00
2018-07-15T09:09:07.134Z,1906.88
2018-07-15T09:10:59.985Z,1125.00
2018-07-15T09:11:59.859Z,1209.38
2018-07-15T09:13:52.713Z,973.13
2018-07-15T09:14:52.713Z,911.25
2018-07-15T09:16:45.481Z,3588.75
2018-07-15T09:17:45.418Z,3678.75
2018-07-15T09:19:38.256Z,4258.13
2018-07-15T09:20:38.198Z,4055.63
2018-07-15T09:22:31.002Z,2379.38
2018-07-15T09:23:30.958Z,1366.88
2018-07-15T09:25:23.801Z,1186.88
2018-07-15T09:26:23.708Z,1181.25
2018-07-15T09:28:16.549Z,1153.13
2018-07-15T09:29:16.499Z,1186.88
2018-07-15T09:31:09.334Z,1215.00
2018-07-15T09:32:09.255Z,1158.75
2018-07-15T09:34:02.098Z,736.88
2018-07-15T09:35:02.025Z,720.00
2018-07-15T09:36:54.849Z,720.00
2018-07-15T09:37:54.788Z,742.50
2018-07-15T09:39:47.634Z,765.00
2018-07-15T09:40:47.555Z,725.63
2018-07-15T09:42:40.376Z,663.75
2018-07-15T09:43:40.353Z,691.88
2018-07-15T09:45:33.186Z,1248.75
2018-07-15T09:46:33.130Z,1254.38
2018-07-15T09:48:25.973Z,1580.63
2018-07-15T09:49:25.878Z,3054.38
2018-07-15T09:51:18.697Z,2863.13
2018-07-15T09:52:18.638Z,2356.88
2018-07-15T09:54:11.493Z,2548.13
2018-07-15T09:55:11.438Z,3723.75
2018-07-15T09:57:04.296Z,3780.00
2018-07-15T09:58:04.174Z,3650.63
2018-07-15T09:59:57.003Z,3223.13
2018-07-15T10:00:56.951Z,3740.63
2018-07-15T10:02:49.818Z,3695.63
2018-07-15T10:03:49.747Z,1693.13
2018-07-15T10:05:42.594Z,3166.88
2018-07-15T10:06:42.522Z,2092.50
2018-07-15T10:08:35.357Z,3436.88
2018-07-15T10:09:35.328Z,3144.38
2018-07-15T10:11:28.135Z,922.50
2018-07-15T10:12:28.111Z,849.38
2018-07-15T10:14:21.409Z,2182.50
2018-07-15T10:15:21.338Z,3116.25
2018-07-15T10:17:14.174Z,3543.75
2018-07-15T10:18:14.114Z,742.50
2018-07-15T10:20:06.998Z,753.75
2018-07-15T10:21:06.972Z,770.63
2018-07-15T10:22:59.762Z,748.13
2018-07-15T10:23:59.704Z,742.50
2018-07-15T10:25:52.555Z,3605.63
2018-07-15T10:26:52.500Z,1676.25
2018-07-15T10:28:45.333Z,3290.63
2018-07-15T10:29:45.300Z,2806.88
2018-07-15T10:31:38.216Z,2323.13
2018-07-15T10:32:38.044Z,2621.25
2018-07-15T10:34:30.859Z,3268.13
2018-07-15T10:35:30.763Z,3195.00
2018-07-15T10:37:23.591Z,3217.50
2018-07-15T10:38:23.520Z,3037.50
2018-07-15T10:40:16.349Z,3065.63
2018-07-15T10:41:16.379Z,2958.75
2018-07-15T10:43:09.098Z,3003.75
2018-07-15T10:44:09.037Z,3015.00
2018-07-15T10:46:01.849Z,1012.50
2018-07-15T10:47:01.884Z,573.75
2018-07-15T10:48:55.130Z,579.38
2018-07-15T10:49:55.128Z,579.38
2018-07-15T10:51:47.869Z,630.00
2018-07-15T10:52:47.878Z,646.88
2018-07-15T10:54:40.690Z,691.88
2018-07-15T10:55:40.594Z,759.38
2018-07-15T10:57:33.422Z,742.50
2018-07-15T10:58:33.343Z,967.50
2018-07-15T11:00:26.322Z,1175.63
2018-07-15T11:01:26.220Z,1153.13
2018-07-15T11:03:19.037Z,1231.88
2018-07-15T11:04:19.019Z,1271.25
2018-07-15T11:06:11.852Z,1698.75
2018-07-15T11:07:11.724Z,2126.25
2018-07-15T11:09:04.635Z,2570.63
2018-07-15T11:10:04.550Z,2593.13
2018-07-15T11:11:57.390Z,2469.38
2018-07-15T11:12:57.321Z,2514.38
2018-07-15T11:14:50.160Z,2604.38
2018-07-15T11:15:50.139Z,2536.88
2018-07-15T11:17:42.901Z,708.75
2018-07-15T11:18:42.850Z,568.13
2018-07-15T11:20:35.649Z,2013.75
2018-07-15T11:21:35.604Z,1974.38
2018-07-15T11:23:28.401Z,2435.63
2018-07-15T11:24:28.337Z,2401.88
2018-07-15T11:26:21.263Z,1856.25
2018-07-15T11:27:21.175Z,1715.63
2018-07-15T11:29:14.017Z,618.75
2018-07-15T11:30:14.024Z,641.25
2018-07-15T11:32:06.750Z,691.88
2018-07-15T11:33:06.689Z,1468.13
2018-07-15T11:34:59.551Z,731.25
2018-07-15T11:35:59.476Z,697.50
2018-07-15T11:37:52.289Z,675.00
2018-07-15T11:38:52.221Z,675.00
2018-07-15T11:40:45.128Z,894.38
2018-07-15T11:41:44.973Z,1102.50
2018-07-15T11:43:37.768Z,669.38
2018-07-15T11:44:37.723Z,781.88
2018-07-15T11:46:30.568Z,1153.13
2018-07-15T11:47:30.499Z,894.38
2018-07-15T11:49:23.284Z,1265.63
2018-07-15T11:50:23.228Z,725.63
2018-07-15T11:52:16.027Z,815.63
2018-07-15T11:53:15.970Z,1434.38
2018-07-15T11:55:08.781Z,1721.25
2018-07-15T11:56:08.710Z,1738.13
2018-07-15T11:58:01.524Z,1721.25
2018-07-15T11:59:01.462Z,1642.50
2018-07-15T12:00:54.304Z,894.38
2018-07-15T12:01:54.231Z,495.00
2018-07-15T12:03:47.209Z,450.00
2018-07-15T12:04:47.119Z,433.13
2018-07-15T12:06:39.974Z,416.25
2018-07-15T12:07:39.928Z,410.63
2018-07-15T12:09:32.737Z,410.63
2018-07-15T12:10:32.683Z,410.63
2018-07-15T12:12:25.567Z,421.88
2018-07-15T12:13:25.567Z,433.13
2018-07-15T12:15:18.299Z,489.38
2018-07-15T12:16:18.277Z,540.00
2018-07-15T12:18:11.179Z,635.63
2018-07-15T12:19:11.085Z,675.00
2018-07-15T12:21:04.047Z,691.88
2018-07-15T12:22:03.954Z,630.00
2018-07-15T12:23:57.202Z,528.75
2018-07-15T12:24:56.983Z,534.38
2018-07-15T12:26:49.807Z,517.50
2018-07-15T12:27:49.729Z,517.50
2018-07-15T12:29:42.606Z,523.13
2018-07-15T12:30:42.567Z,511.88
2018-07-15T12:32:35.387Z,506.25
2018-07-15T12:33:35.291Z,506.25
2018-07-15T12:35:28.081Z,500.63
2018-07-15T12:36:28.024Z,495.00
2018-07-15T12:38:20.847Z,472.50
2018-07-15T12:39:20.743Z,466.88
2018-07-15T12:41:13.562Z,517.50
2018-07-15T12:42:13.490Z,511.88
2018-07-15T12:44:06.301Z,500.63
2018-07-15T12:45:06.218Z,455.63
2018-07-15T12:46:59.081Z,405.00
2018-07-15T12:47:59.011Z,393.75
2018-07-15T12:49:51.834Z,365.63
2018-07-15T12:50:51.756Z,354.38
2018-07-15T12:52:44.572Z,343.13
2018-07-15T12:53:44.496Z,337.50
2018-07-15T12:55:37.312Z,337.50
2018-07-15T12:56:37.247Z,337.50
2018-07-15T12:58:30.064Z,343.13
2018-07-15T12:59:29.993Z,337.50
2018-07-15T13:01:22.775Z,343.13
2018-07-15T13:02:22.719Z,348.75
2018-07-15T13:04:15.522Z,354.38
2018-07-15T13:05:15.451Z,354.38
2018-07-15T13:07:08.311Z,360.00
2018-07-15T13:08:08.232Z,376.88
2018-07-15T13:10:01.072Z,320.63
2018-07-15T13:11:01.029Z,393.75
2018-07-15T13:12:53.833Z,405.00
2018-07-15T13:13:53.743Z,410.63
2018-07-15T13:15:46.563Z,416.25
2018-07-15T13:16:46.487Z,433.13
2018-07-15T13:18:39.289Z,466.88
2018-07-15T13:19:39.214Z,483.75
2018-07-15T13:21:32.010Z,540.00
2018-07-15T13:22:31.940Z,540.00
2018-07-15T13:24:24.738Z,562.50
2018-07-15T13:25:24.665Z,579.38
2018-07-15T13:27:17.591Z,607.50
2018-07-15T13:28:17.437Z,585.00
2018-07-15T13:30:10.254Z,540.00
2018-07-15T13:31:10.180Z,506.25
2018-07-15T13:33:02.955Z,450.00
2018-07-15T13:34:02.889Z,421.88
2018-07-15T13:35:55.707Z,393.75
2018-07-15T13:36:55.695Z,382.50
2018-07-15T13:38:48.443Z,376.88
2018-07-15T13:39:48.396Z,376.88
2018-07-15T13:41:41.273Z,264.38
2018-07-15T13:42:41.134Z,219.38
2018-07-15T13:44:34.026Z,360.00
2018-07-15T13:45:33.960Z,247.50
2018-07-15T13:47:26.802Z,202.50
2018-07-15T13:48:26.681Z,202.50
2018-07-15T13:50:19.492Z,196.88
2018-07-15T13:51:19.426Z,202.50
2018-07-15T13:53:12.210Z,253.13
2018-07-15T13:54:12.160Z,399.38
2018-07-15T13:56:04.958Z,399.38
2018-07-15T13:57:04.894Z,393.75
2018-07-15T13:58:57.684Z,393.75
2018-07-15T13:59:57.615Z,410.63
2018-07-15T14:01:50.440Z,416.25
2018-07-15T14:02:50.401Z,416.25
2018-07-15T14:04:43.245Z,416.25
2018-07-15T14:05:43.214Z,421.88
2018-07-15T14:07:36.019Z,416.25
2018-07-15T14:08:35.948Z,410.63
2018-07-15T14:10:28.778Z,399.38
2018-07-15T14:11:28.674Z,405.00
2018-07-15T14:13:21.489Z,416.25
2018-07-15T14:14:21.426Z,421.88
2018-07-15T14:16:14.243Z,399.38
2018-07-15T14:17:14.169Z,376.88
2018-07-15T14:19:06.952Z,365.63
2018-07-15T14:20:06.885Z,360.00
2018-07-15T14:21:59.695Z,360.00
2018-07-15T14:22:59.609Z,371.25
2018-07-15T14:24:52.465Z,376.88
2018-07-15T14:25:52.404Z,376.88
2018-07-15T14:27:45.257Z,303.75
2018-07-15T14:28:45.115Z,219.38
2018-07-15T14:30:37.937Z,219.38
2018-07-15T14:31:37.858Z,191.25
2018-07-15T14:33:30.618Z,180.00
2018-07-15T14:34:30.561Z,180.00
2018-07-15T14:36:23.397Z,185.63
2018-07-15T14:37:23.322Z,365.63
2018-07-15T14:39:16.113Z,376.88
2018-07-15T14:40:16.045Z,376.88
2018-07-15T14:42:08.915Z,388.13
2018-07-15T14:43:08.800Z,393.75
2018-07-15T14:45:01.589Z,399.38
2018-07-15T14:46:01.552Z,405.00
2018-07-15T14:47:54.389Z,410.63
2018-07-15T14:48:54.269Z,405.00
2018-07-15T14:50:47.049Z,416.25
2018-07-15T14:51:46.977Z,421.88
2018-07-15T14:53:39.779Z,427.50
2018-07-15T14:54:39.706Z,427.50
2018-07-15T14:56:32.539Z,421.88
2018-07-15T14:57:32.461Z,427.50
2018-07-15T14:59:25.254Z,421.88
2018-07-15T15:00:25.194Z,438.75
2018-07-15T15:02:18.041Z,421.88
2018-07-15T15:03:17.945Z,320.63
2018-07-15T15:05:10.813Z,241.88
2018-07-15T15:06:10.757Z,225.00
2018-07-15T15:08:03.570Z,191.25
2018-07-15T15:09:03.507Z,185.63
2018-07-15T15:10:56.327Z,247.50
2018-07-15T15:11:56.245Z,376.88
2018-07-15T15:13:49.055Z,365.63
2018-07-15T15:14:48.981Z,360.00
2018-07-15T15:16:42.228Z,360.00
2018-07-15T15:17:41.746Z,354.38
2018-07-15T15:19:34.526Z,348.75
2018-07-15T15:20:34.439Z,348.75
2018-07-15T15:22:27.374Z,348.75
2018-07-15T15:23:27.282Z,343.13
2018-07-15T15:25:20.174Z,348.75
2018-07-15T15:26:20.124Z,348.75
2018-07-15T15:28:12.940Z,348.75
2018-07-15T15:29:12.838Z,348.75
2018-07-15T15:31:05.635Z,343.13
2018-07-15T15:32:05.577Z,343.13
2018-07-15T15:33:58.369Z,343.13
2018-07-15T15:34:58.303Z,348.75
2018-07-15T15:36:51.149Z,343.13
2018-07-15T15:37:51.058Z,343.13
2018-07-15T15:39:43.883Z,331.88
2018-07-15T15:40:43.777Z,337.50
2018-07-15T15:42:36.566Z,337.50
2018-07-15T15:43:36.505Z,331.88
2018-07-15T15:45:29.313Z,326.25
2018-07-15T15:46:29.240Z,326.25
2018-07-15T15:48:22.053Z,326.25
2018-07-15T15:49:21.980Z,326.25
2018-07-15T15:51:14.821Z,326.25
2018-07-15T15:52:14.796Z,326.25
2018-07-15T15:54:07.544Z,320.63
2018-07-15T15:55:07.481Z,315.00
2018-07-15T15:57:00.285Z,315.00
2018-07-15T15:58:00.231Z,315.00
2018-07-15T15:59:53.087Z,315.00
2018-07-15T16:00:52.970Z,309.38
2018-07-15T16:02:46.644Z,309.38
2018-07-15T16:03:46.600Z,309.38
2018-07-15T16:05:39.442Z,303.75
2018-07-15T16:06:39.354Z,303.75
2018-07-15T16:08:32.155Z,298.13
2018-07-15T16:09:32.105Z,298.13
2018-07-15T16:11:24.896Z,298.13
2018-07-15T16:12:24.819Z,298.13
2018-07-15T16:14:17.659Z,298.13
2018-07-15T16:15:17.561Z,292.50
2018-07-15T16:17:10.409Z,298.13
2018-07-15T16:18:10.322Z,298.13
2018-07-15T16:20:03.103Z,292.50
2018-07-15T16:21:03.013Z,292.50
2018-07-15T16:22:55.800Z,292.50
2018-07-15T16:23:55.734Z,286.88
2018-07-15T16:25:48.533Z,286.88
2018-07-15T16:26:48.457Z,286.88
2018-07-15T16:28:41.250Z,286.88
2018-07-15T16:29:41.206Z,281.25
2018-07-15T16:31:34.007Z,281.25
2018-07-15T16:32:33.937Z,281.25
2018-07-15T16:34:26.729Z,281.25
2018-07-15T16:35:26.681Z,275.63
2018-07-15T16:37:19.469Z,275.63
2018-07-15T16:38:19.400Z,270.00
2018-07-15T16:40:12.209Z,270.00
2018-07-15T16:41:12.132Z,270.00
2018-07-15T16:43:04.913Z,264.38
2018-07-15T16:44:04.849Z,264.38
2018-07-15T16:45:57.805Z,264.38
2018-07-15T16:46:57.575Z,264.38
2018-07-15T16:48:50.358Z,264.38
2018-07-15T16:49:50.345Z,275.63
2018-07-15T16:51:43.100Z,292.50
2018-07-15T16:52:43.039Z,309.38
2018-07-15T16:54:35.823Z,196.88
2018-07-15T16:55:35.749Z,219.38
2018-07-15T16:57:28.540Z,253.13
2018-07-15T16:58:28.464Z,247.50
2018-07-15T17:00:21.274Z,241.88
2018-07-15T17:01:21.195Z,236.25
2018-07-15T17:03:14.145Z,219.38
2018-07-15T17:04:13.932Z,236.25
2018-07-15T17:06:06.761Z,225.00
2018-07-15T17:07:06.678Z,129.38
2018-07-15T17:08:59.460Z,135.00
2018-07-15T17:09:59.403Z,146.25
2018-07-15T17:11:52.244Z,123.75
2018-07-15T17:12:52.134Z,123.75
2018-07-15T17:14:44.927Z,118.13
2018-07-15T17:15:44.872Z,157.50
2018-07-15T17:17:37.720Z,213.75
2018-07-15T17:18:37.601Z,230.63
2018-07-15T17:20:30.454Z,247.50
2018-07-15T17:21:30.361Z,230.63
2018-07-15T17:23:23.171Z,202.50
2018-07-15T17:24:23.099Z,202.50
2018-07-15T17:26:16.384Z,286.88
2018-07-15T17:27:16.316Z,382.50
2018-07-15T17:29:09.127Z,798.75
2018-07-15T17:30:09.051Z,680.63
2018-07-15T17:32:01.877Z,315.00
2018-07-15T17:33:01.787Z,253.13
2018-07-15T17:34:54.567Z,191.25
2018-07-15T17:35:54.507Z,185.63
2018-07-15T17:37:47.325Z,180.00
2018-07-15T17:38:47.254Z,180.00
2018-07-15T17:40:40.110Z,174.38
2018-07-15T17:41:39.992Z,174.38
2018-07-15T17:43:32.781Z,168.75
2018-07-15T17:44:32.739Z,168.75
2018-07-15T17:46:25.481Z,163.13
2018-07-15T17:47:25.449Z,163.13
2018-07-15T17:49:18.229Z,157.50
2018-07-15T17:50:18.161Z,157.50
2018-07-15T17:52:10.990Z,151.88
2018-07-15T17:53:10.927Z,146.25
2018-07-15T17:55:03.752Z,146.25
2018-07-15T17:56:03.690Z,146.25
2018-07-15T17:57:56.495Z,140.63
2018-07-15T17:58:56.461Z,140.63
2018-07-15T18:00:49.201Z,140.63